Time;durP1;ratioP1;P1;durP2;ratioP2;P2;SDS_P1;SDS_P2;PMS_P1;PMS_P2;Temp;Humidity;BMP_temperature;BMP_pressure;BME280_temperature;BME280_humidity;BME280_pressure;Samples;Min_cycle;Max_cycle;Signal;HPM_P1;HPM_P2
2021/07/27 00:00:02;;;;;;;7.43;6.70;;;21.30;99.90;;;;;;5038990;28;20980;-82
2021/07/27 00:02:29;;;;;;;7.10;6.40;;;21.30;99.90;;;;;;5039151;28;20454;-82
2021/07/27 00:04:55;;;;;;;6.77;6.10;;;21.30;99.90;;;;;;5038124;28;20443;-82
2021/07/27 00:07:22;;;;;;;8.93;6.57;;;21.10;99.90;;;;;;5038082;28;20504;-81
2021/07/27 00:09:48;;;;;;;7.40;6.10;;;21.20;99.90;;;;;;5038730;28;20205;-82
2021/07/27 00:12:16;;;;;;;8.90;6.77;;;21.10;99.90;;;;;;5038394;28;20458;-82
2021/07/27 00:14:43;;;;;;;9.17;8.20;;;21.20;99.90;;;;;;5038601;28;20509;-81
2021/07/27 00:17:09;;;;;;;7.90;7.20;;;21.20;99.90;;;;;;5038498;28;20478;-82
2021/07/27 00:19:36;;;;;;;10.93;7.00;;;21.10;99.90;;;;;;5038612;28;20482;-82
2021/07/27 00:22:03;;;;;;;7.83;7.13;;;21.10;99.90;;;;;;5039880;28;20482;-82
2021/07/27 00:24:29;;;;;;;8.47;7.50;;;21.10;99.90;;;;;;5042059;28;20474;-82
2021/07/27 00:26:57;;;;;;;8.73;7.33;;;21.10;99.90;;;;;;5039952;28;20838;-82
2021/07/27 00:29:25;;;;;;;7.67;6.80;;;20.90;99.90;;;;;;5039064;28;20546;-80
2021/07/27 00:31:52;;;;;;;11.63;7.50;;;21.00;99.90;;;;;;5039039;28;20514;-82
2021/07/27 00:34:18;;;;;;;7.23;6.63;;;20.80;99.90;;;;;;5039096;28;20479;-81
2021/07/27 00:36:45;;;;;;;8.40;7.50;;;20.90;99.90;;;;;;5038985;28;20455;-81
2021/07/27 00:39:12;;;;;;;9.30;8.37;;;20.80;99.90;;;;;;5039139;28;20446;-81
2021/07/27 00:41:38;;;;;;;7.10;6.40;;;20.90;99.90;;;;;;5040164;28;20449;-81
2021/07/27 00:44:05;;;;;;;8.15;7.35;;;20.90;99.90;;;;;;5038295;28;20442;-81
2021/07/27 00:46:33;;;;;;;9.63;7.60;;;20.90;99.90;;;;;;5038472;28;20200;-81
2021/07/27 00:49:00;;;;;;;8.20;7.50;;;20.90;99.90;;;;;;5037565;28;20852;-81
2021/07/27 00:51:27;;;;;;;10.87;8.13;;;20.90;99.90;;;;;;5037467;28;20490;-81
2021/07/27 00:53:54;;;;;;;9.33;8.43;;;20.80;99.90;;;;;;5037448;28;20513;-81
2021/07/27 00:56:21;;;;;;;10.97;7.93;;;20.70;99.90;;;;;;5037696;28;20447;-81
2021/07/27 00:58:47;;;;;;;8.03;7.33;;;20.70;99.90;;;;;;5037749;28;20495;-81
2021/07/27 01:01:14;;;;;;;9.33;8.43;;;20.60;99.90;;;;;;5037814;28;20478;-80
2021/07/27 01:03:42;;;;;;;9.50;8.30;;;20.70;99.90;;;;;;5043000;28;20444;-80
2021/07/27 01:06:08;;;;;;;8.43;7.63;;;20.20;99.90;;;;;;5055741;28;20431;-80
2021/07/27 01:08:36;;;;;;;10.47;8.43;;;20.60;99.90;;;;;;5043341;28;20467;-81
2021/07/27 01:11:03;;;;;;;9.27;8.37;;;20.60;99.90;;;;;;5038989;28;20483;-81
2021/07/27 01:13:29;;;;;;;12.50;8.50;;;20.90;99.90;;;;;;5038320;28;20443;-80
2021/07/27 01:16:01;;;;;;;11.90;8.73;;;20.60;99.90;;;;;;5037884;28;20494;-81
2021/07/27 01:18:30;;;;;;;9.60;8.70;;;20.70;99.90;;;;;;5038141;28;20471;-81
2021/07/27 01:37:50;;;;;;;9.20;8.33;;;20.60;99.90;;;;;;5036444;28;20466;-80
2021/07/27 01:40:19;;;;;;;10.00;8.67;;;20.60;99.90;;;;;;5036355;28;20431;-81
2021/07/27 01:42:45;;;;;;;9.87;8.97;;;20.60;99.90;;;;;;5037061;28;20969;-81
2021/07/27 01:45:19;;;;;;;9.40;8.40;;;20.50;99.90;;;;;;5036699;28;20891;-80
2021/07/27 01:47:47;;;;;;;8.30;7.50;;;20.60;99.90;;;;;;5051389;28;20446;-79
2021/07/27 01:50:16;;;;;;;9.90;8.90;;;20.60;99.90;;;;;;5053894;28;20427;-79
2021/07/27 01:52:46;;;;;;;10.40;9.30;;;20.60;99.90;;;;;;5052414;28;20506;-79
2021/07/27 01:55:16;;;;;;;10.17;8.87;;;20.60;99.90;;;;;;5051196;28;20600;-80
2021/07/27 01:57:44;;;;;;;9.47;8.27;;;20.60;99.90;;;;;;5048335;28;20984;-80
2021/07/27 02:00:11;;;;;;;9.43;7.77;;;20.60;99.90;;;;;;5049155;28;20447;-80
2021/07/27 02:02:38;;;;;;;10.23;8.70;;;20.60;99.90;;;;;;5044438;28;20550;-80
2021/07/27 02:05:08;;;;;;;9.10;8.13;;;20.60;99.90;;;;;;5040713;28;20462;-80
2021/07/27 02:07:36;;;;;;;11.27;10.13;;;20.60;99.90;;;;;;5044315;28;20502;-80
2021/07/27 02:10:06;;;;;;;11.70;9.10;;;20.60;99.90;;;;;;5041509;28;20473;-80
2021/07/27 02:12:39;;;;;;;9.90;9.00;;;20.40;99.90;;;;;;5042129;28;20494;-80
2021/07/27 02:15:21;;;;;;;9.60;8.40;;;20.60;99.90;;;;;;5041478;28;20498;-80
2021/07/27 02:17:49;;;;;;;8.80;8.00;;;20.60;99.90;;;;;;5038426;28;20525;-80
2021/07/27 02:20:16;;;;;;;9.40;8.50;;;20.60;99.90;;;;;;5036966;28;20799;-80
2021/07/27 02:22:42;;;;;;;9.43;8.53;;;20.60;99.90;;;;;;5035946;28;20463;-80
2021/07/27 02:25:11;;;;;;;12.93;9.37;;;20.60;99.90;;;;;;5035743;28;20443;-80
2021/07/27 02:27:38;;;;;;;10.77;9.30;;;20.60;99.90;;;;;;5035771;28;20463;-80
2021/07/27 02:30:07;;;;;;;12.03;9.50;;;20.60;99.90;;;;;;5035164;28;20451;-80
2021/07/27 02:32:36;;;;;;;11.30;8.40;;;20.60;99.90;;;;;;5035841;28;20946;-80
2021/07/27 02:35:03;;;;;;;11.70;9.00;;;20.60;99.90;;;;;;5036255;28;20482;-80
2021/07/27 02:37:31;;;;;;;15.00;10.10;;;20.60;99.90;;;;;;5036024;28;20487;-81
2021/07/27 02:39:58;;;;;;;11.23;8.93;;;20.60;99.90;;;;;;5035747;28;20830;-80
2021/07/27 02:42:25;;;;;;;10.20;9.00;;;20.60;99.90;;;;;;5036424;28;20478;-81
2021/07/27 02:44:52;;;;;;;10.53;9.43;;;20.50;99.90;;;;;;5035535;28;20526;-82
2021/07/27 02:47:19;;;;;;;10.80;9.80;;;20.50;99.90;;;;;;5035453;28;20471;-80
2021/07/27 02:49:47;;;;;;;10.20;9.20;;;20.50;99.90;;;;;;5035173;28;20450;-80
2021/07/27 02:52:14;;;;;;;9.80;8.63;;;20.60;99.90;;;;;;5034905;28;20475;-80
2021/07/27 02:54:40;;;;;;;9.40;8.40;;;20.50;99.90;;;;;;5039974;28;20903;-80
2021/07/27 02:57:07;;;;;;;9.67;8.77;;;20.50;99.90;;;;;;5049681;28;20466;-80
2021/07/27 02:59:34;;;;;;;10.37;9.30;;;20.50;99.90;;;;;;5044850;28;20443;-80
2021/07/27 03:02:01;;;;;;;11.03;9.93;;;20.50;99.90;;;;;;5045999;28;20450;-80
2021/07/27 03:04:27;;;;;;;10.43;9.40;;;20.50;99.90;;;;;;5042528;28;20447;-81
2021/07/27 03:06:55;;;;;;;10.00;8.47;;;20.40;99.90;;;;;;5035756;28;20475;-80
2021/07/27 03:09:25;;;;;;;11.13;8.70;;;20.40;99.90;;;;;;5034452;28;20443;-80
2021/07/27 03:11:51;;;;;;;11.57;10.27;;;20.40;99.90;;;;;;5035700;28;20451;-80
2021/07/27 03:14:18;;;;;;;10.48;9.57;;;20.40;99.90;;;;;;5037250;28;20450;-82
2021/07/27 03:16:45;;;;;;;9.23;8.43;;;20.40;99.90;;;;;;5049313;28;20446;-79
2021/07/27 03:19:11;;;;;;;10.30;8.50;;;20.40;99.90;;;;;;5052935;28;20451;-80
2021/07/27 03:21:38;;;;;;;9.90;9.00;;;20.40;99.90;;;;;;5052319;28;20447;-80
2021/07/27 03:24:06;;;;;;;13.40;10.20;;;20.50;99.90;;;;;;5053825;28;20443;-79
2021/07/27 03:26:32;;;;;;;10.53;9.53;;;20.40;99.90;;;;;;5052724;28;20443;-80
2021/07/27 03:28:59;;;;;;;9.90;9.00;;;20.40;99.90;;;;;;5052749;28;20510;-80
2021/07/27 03:31:26;;;;;;;14.75;9.07;;;20.10;99.90;;;;;;5047936;28;20500;-80
2021/07/27 03:33:52;;;;;;;11.10;9.53;;;20.30;99.90;;;;;;5039899;28;20231;-80
2021/07/27 03:36:19;;;;;;;13.10;9.87;;;20.30;99.90;;;;;;5040537;28;20490;-80
2021/07/27 03:38:45;;;;;;;10.57;9.63;;;20.30;99.90;;;;;;5038688;28;20827;-80
2021/07/27 03:41:13;;;;;;;12.33;11.03;;;20.30;99.90;;;;;;5039531;28;20469;-80
2021/07/27 03:43:40;;;;;;;9.80;8.83;;;20.30;99.90;;;;;;5047393;28;20475;-81
2021/07/27 03:46:08;;;;;;;11.27;9.83;;;20.20;99.90;;;;;;5053119;28;20482;-81
2021/07/27 03:48:34;;;;;;;9.90;8.90;;;20.30;99.90;;;;;;5039507;28;20497;-81
2021/07/27 03:51:01;;;;;;;10.57;9.57;;;20.20;99.90;;;;;;5039744;28;20474;-81
2021/07/27 03:53:27;;;;;;;11.00;9.90;;;20.20;99.90;;;;;;5038937;28;20508;-81
2021/07/27 03:55:54;;;;;;;12.60;10.07;;;20.10;99.90;;;;;;5038190;28;20483;-81
2021/07/27 03:58:22;;;;;;;16.80;11.87;;;20.00;99.90;;;;;;5040271;28;20851;-81
2021/07/27 04:00:48;;;;;;;17.43;9.60;;;20.20;99.90;;;;;;5039688;28;20447;-81
2021/07/27 04:03:15;;;;;;;10.90;9.63;;;20.20;99.90;;;;;;5043990;28;20546;-82
2021/07/27 04:05:42;;;;;;;11.33;9.30;;;20.30;99.90;;;;;;5050063;28;20478;-81
2021/07/27 04:08:09;;;;;;;11.23;9.10;;;20.30;99.90;;;;;;5044589;28;20540;-82
2021/07/27 04:10:35;;;;;;;9.73;8.73;;;20.20;99.90;;;;;;5041150;28;20474;-81
2021/07/27 04:13:04;;;;;;;11.70;8.80;;;20.20;99.90;;;;;;5051356;28;20454;-81
2021/07/27 04:15:42;;;;;;;10.90;9.20;;;20.20;99.90;;;;;;5056196;28;20530;-81
2021/07/27 04:18:09;;;;;;;10.20;8.63;;;20.20;99.90;;;;;;5056877;28;20457;-80
2021/07/27 04:20:35;;;;;;;10.07;9.07;;;20.10;99.90;;;;;;5047394;28;20444;-81
2021/07/27 04:23:02;;;;;;;9.33;8.43;;;20.20;99.90;;;;;;5037401;28;20586;-81
2021/07/27 04:25:29;;;;;;;10.63;9.63;;;20.10;99.90;;;;;;5038013;28;20465;-81
2021/07/27 04:27:56;;;;;;;14.67;10.10;;;20.10;99.90;;;;;;5037305;28;20467;-81
2021/07/27 04:30:23;;;;;;;9.90;8.90;;;20.10;99.90;;;;;;5040003;28;20447;-81
2021/07/27 04:32:51;;;;;;;8.90;8.13;;;20.10;99.90;;;;;;5039795;28;20477;-81
2021/07/27 04:35:17;;;;;;;9.67;8.67;;;20.20;99.90;;;;;;5039420;28;20479;-82
2021/07/27 04:37:44;;;;;;;10.30;9.30;;;20.20;99.90;;;;;;5038647;28;20831;-81
2021/07/27 04:40:11;;;;;;;11.17;9.27;;;20.20;99.90;;;;;;5038664;28;20482;-81
2021/07/27 04:42:37;;;;;;;15.50;8.70;;;20.20;99.90;;;;;;5038285;28;20447;-81
2021/07/27 04:45:05;;;;;;;9.63;8.63;;;20.20;99.90;;;;;;5038063;28;20475;-80
2021/07/27 04:47:31;;;;;;;9.43;8.43;;;20.30;99.90;;;;;;5038412;28;20467;-79
2021/07/27 04:49:59;;;;;;;9.70;8.70;;;20.30;99.90;;;;;;5037299;28;20487;-79
2021/07/27 04:52:26;;;;;;;11.93;9.50;;;20.30;99.90;;;;;;5038721;28;20478;-79
2021/07/27 04:54:55;;;;;;;14.93;9.57;;;20.30;99.90;;;;;;5036654;28;20489;-80
2021/07/27 04:57:21;;;;;;;10.70;8.30;;;20.30;99.90;;;;;;5035977;28;20534;-80
2021/07/27 04:59:48;;;;;;;9.80;8.53;;;20.30;99.90;;;;;;5037394;28;20451;-80
2021/07/27 05:02:14;;;;;;;9.93;8.10;;;20.40;99.90;;;;;;5037415;28;20479;-80
2021/07/27 05:04:41;;;;;;;9.10;8.30;;;20.40;99.90;;;;;;5036730;28;20483;-80
2021/07/27 05:07:09;;;;;;;9.17;8.17;;;20.50;99.90;;;;;;5036582;28;20478;-80
2021/07/27 05:09:36;;;;;;;11.83;8.40;;;20.60;99.90;;;;;;5036737;28;20479;-80
2021/07/27 05:12:03;;;;;;;10.00;8.23;;;20.60;99.90;;;;;;5036480;28;20481;-80
2021/07/27 05:14:30;;;;;;;8.80;8.07;;;20.70;99.90;;;;;;5036721;28;20451;-80
2021/07/27 05:16:56;;;;;;;11.33;7.93;;;20.70;99.90;;;;;;5036691;28;20518;-80
2021/07/27 05:19:24;;;;;;;9.20;7.97;;;20.80;99.90;;;;;;5037005;28;20443;-80
2021/07/27 05:21:53;;;;;;;10.60;8.20;;;20.80;99.90;;;;;;5037321;28;20439;-80
2021/07/27 05:24:22;;;;;;;9.40;8.10;;;20.80;99.90;;;;;;5037097;28;20443;-80
2021/07/27 05:26:49;;;;;;;8.50;7.50;;;20.90;99.90;;;;;;5036767;28;20953;-80
2021/07/27 05:29:17;;;;;;;9.90;7.37;;;20.80;99.90;;;;;;5037488;28;20455;-80
2021/07/27 05:31:44;;;;;;;7.67;6.70;;;21.00;99.90;;;;;;5038216;28;20462;-80
2021/07/27 05:34:10;;;;;;;8.63;7.73;;;21.10;99.90;;;;;;5037618;28;20821;-80
2021/07/27 05:36:37;;;;;;;9.27;7.55;;;21.10;99.90;;;;;;5038235;28;20853;-81
2021/07/27 05:39:04;;;;;;;8.33;7.53;;;21.10;99.90;;;;;;5078557;22;20219;-83
2021/07/27 05:41:32;;;;;;;8.60;7.60;;;21.20;99.90;;;;;;5058998;28;20434;-83
2021/07/27 05:43:58;;;;;;;8.33;6.90;;;21.20;99.90;;;;;;5059045;28;20436;-82
2021/07/27 05:46:25;;;;;;;7.80;6.70;;;21.40;99.90;;;;;;5059266;28;20428;-82
2021/07/27 05:48:53;;;;;;;7.43;6.60;;;21.40;99.90;;;;;;5058757;28;20451;-83
2021/07/27 05:51:21;;;;;;;8.23;7.43;;;21.40;99.90;;;;;;5058409;28;20431;-83
2021/07/27 05:53:47;;;;;;;8.00;7.20;;;21.50;99.90;;;;;;5053073;28;20436;-84
2021/07/27 05:56:14;;;;;;;7.80;7.10;;;21.40;99.90;;;;;;5050602;28;20482;-83
2021/07/27 05:58:42;;;;;;;8.33;7.00;;;21.50;99.90;;;;;;5055297;28;20462;-83
2021/07/27 06:01:08;;;;;;;8.83;7.23;;;21.50;99.90;;;;;;5053860;28;20469;-82
2021/07/27 06:03:35;;;;;;;7.60;6.80;;;21.40;99.90;;;;;;5052685;28;20474;-84
2021/07/27 06:06:02;;;;;;;8.77;7.87;;;21.60;99.90;;;;;;5056303;28;20430;-82
2021/07/27 06:08:28;;;;;;;7.73;6.93;;;21.60;99.90;;;;;;5052958;28;20494;-83
2021/07/27 06:10:55;;;;;;;8.20;7.20;;;21.70;99.90;;;;;;5043015;28;20458;-83
2021/07/27 06:13:22;;;;;;;8.63;6.70;;;21.70;99.90;;;;;;5042682;28;20477;-84
2021/07/27 06:15:50;;;;;;;8.23;7.13;;;22.00;99.90;;;;;;5042281;28;20675;-83
2021/07/27 06:18:17;;;;;;;6.60;6.00;;;21.90;99.90;;;;;;5042022;28;20467;-83
2021/07/27 06:20:43;;;;;;;9.00;7.53;;;22.00;99.90;;;;;;5041908;28;20447;-84
2021/07/27 06:23:10;;;;;;;9.03;6.93;;;21.80;99.90;;;;;;5042416;28;20447;-83
2021/07/27 06:25:38;;;;;;;7.40;6.53;;;22.00;99.90;;;;;;5043470;28;20489;-83
2021/07/27 06:28:05;;;;;;;8.07;6.27;;;22.10;99.90;;;;;;5041206;28;20502;-84
2021/07/27 06:30:31;;;;;;;6.63;5.97;;;22.10;99.90;;;;;;5041824;28;20455;-84
2021/07/27 06:32:59;;;;;;;7.13;5.35;;;22.30;99.90;;;;;;5044266;28;20453;-85
2021/07/27 06:35:26;;;;;;;6.77;6.17;;;22.30;99.90;;;;;;5041787;28;20209;-86
2021/07/27 06:37:53;;;;;;;7.10;6.40;;;22.40;99.90;;;;;;5041789;28;20477;-84
2021/07/27 06:40:20;;;;;;;6.90;6.20;;;22.30;99.90;;;;;;5041411;28;20451;-84
2021/07/27 06:42:47;;;;;;;5.80;5.20;;;22.40;99.90;;;;;;5042125;28;20542;-83
2021/07/27 06:45:14;;;;;;;6.43;5.83;;;22.50;99.90;;;;;;5041275;28;20466;-84
2021/07/27 06:47:41;;;;;;;6.77;6.17;;;22.50;99.90;;;;;;5042881;28;20463;-83
2021/07/27 06:50:10;;;;;;;7.53;6.77;;;22.50;99.90;;;;;;5044849;28;20470;-84
2021/07/27 06:52:37;;;;;;;7.27;6.33;;;22.60;99.90;;;;;;5057470;28;20477;-83
2021/07/27 06:55:04;;;;;;;9.13;6.30;;;23.00;99.90;;;;;;5060908;28;20440;-83
2021/07/27 06:57:31;;;;;;;6.33;5.73;;;22.70;99.90;;;;;;5058361;28;20483;-82
2021/07/27 06:59:57;;;;;;;7.00;5.87;;;22.80;99.90;;;;;;5046186;28;20446;-83
2021/07/27 07:02:27;;;;;;;5.80;5.30;;;22.80;99.90;;;;;;5045113;28;20447;-83
2021/07/27 07:04:54;;;;;;;5.90;5.07;;;22.80;99.90;;;;;;5045751;28;20435;-83
2021/07/27 07:07:22;;;;;;;5.60;4.70;;;22.90;99.90;;;;;;5046202;28;20463;-83
2021/07/27 07:09:49;;;;;;;6.43;5.70;;;23.00;99.90;;;;;;5048847;28;20877;-82
2021/07/27 07:12:16;;;;;;;5.50;4.93;;;23.00;99.90;;;;;;5046314;28;20949;-83
2021/07/27 07:14:42;;;;;;;6.73;5.40;;;23.00;99.90;;;;;;5041902;28;20455;-82
2021/07/27 07:17:11;;;;;;;6.63;6.03;;;23.20;99.90;;;;;;5045519;28;20486;-82
2021/07/27 07:19:38;;;;;;;8.63;5.37;;;23.20;99.90;;;;;;5046033;28;20505;-83
2021/07/27 07:22:05;;;;;;;8.40;4.57;;;23.20;99.90;;;;;;5057207;28;20430;-81
2021/07/27 07:24:33;;;;;;;4.37;4.03;;;23.30;99.90;;;;;;5061282;28;20431;-83
2021/07/27 07:27:00;;;;;;;11.17;6.20;;;23.40;99.90;;;;;;5047588;28;20443;-84
2021/07/27 07:29:26;;;;;;;4.63;4.17;;;23.50;99.90;;;;;;5046061;28;20466;-85
2021/07/27 07:31:59;;;;;;;5.03;4.43;;;23.60;99.90;;;;;;5046489;28;20447;-84
2021/07/27 07:34:26;;;;;;;5.60;4.17;;;23.50;99.90;;;;;;5044916;28;20451;-84
2021/07/27 07:36:52;;;;;;;4.20;3.70;;;23.60;99.90;;;;;;5050411;28;20513;-85
2021/07/27 07:39:34;;;;;;;4.20;3.80;;;23.80;99.90;;;;;;5046540;28;20471;-86
2021/07/27 07:42:02;;;;;;;3.83;3.43;;;23.70;99.90;;;;;;5046238;28;20465;-84
2021/07/27 07:44:29;;;;;;;5.38;3.88;;;23.30;99.90;;;;;;5047253;28;20450;-84
2021/07/27 07:46:56;;;;;;;3.60;3.40;;;23.90;99.90;;;;;;5047474;28;20204;-83
2021/07/27 07:49:22;;;;;;;5.57;3.90;;;23.80;99.90;;;;;;5047063;28;20451;-83
2021/07/27 07:51:50;;;;;;;4.43;4.07;;;23.80;99.90;;;;;;5045676;28;20514;-84
2021/07/27 07:54:17;;;;;;;4.43;4.03;;;23.80;99.90;;;;;;5046375;28;20450;-85
2021/07/27 07:56:46;;;;;;;4.03;3.60;;;24.00;99.90;;;;;;5048024;28;20478;-85
2021/07/27 07:59:14;;;;;;;4.37;3.80;;;24.30;99.90;;;;;;5047391;28;20566;-84
2021/07/27 08:01:44;;;;;;;6.47;5.50;;;24.00;99.90;;;;;;5048873;28;20439;-84
2021/07/27 08:04:11;;;;;;;4.40;4.03;;;24.10;99.90;;;;;;5050133;28;20485;-84
2021/07/27 08:06:38;;;;;;;4.93;4.43;;;24.00;99.90;;;;;;5048317;28;20476;-83
2021/07/27 08:09:05;;;;;;;4.53;4.00;;;24.10;99.90;;;;;;5047226;28;20462;-84
2021/07/27 08:11:31;;;;;;;5.30;4.80;;;24.10;99.90;;;;;;5046153;28;20447;-84
2021/07/27 08:13:59;;;;;;;6.60;5.13;;;24.10;99.90;;;;;;5046216;28;20447;-84
2021/07/27 08:16:27;;;;;;;6.13;5.37;;;24.00;99.90;;;;;;5046799;28;20487;-84
2021/07/27 08:18:54;;;;;;;4.23;3.93;;;23.90;99.90;;;;;;5045519;28;20501;-84
2021/07/27 08:21:24;;;;;;;4.80;4.40;;;24.20;99.90;;;;;;5046296;28;20477;-84
2021/07/27 08:23:50;;;;;;;4.47;4.07;;;24.20;99.90;;;;;;5049529;28;20523;-84
2021/07/27 08:26:17;;;;;;;4.50;4.00;;;24.30;99.90;;;;;;5057365;28;20423;-82
2021/07/27 08:28:45;;;;;;;7.43;4.27;;;24.40;99.90;;;;;;5056718;28;20467;-82
2021/07/27 08:31:13;;;;;;;4.55;4.15;;;24.60;99.90;;;;;;5057635;28;20466;-82
2021/07/27 08:33:40;;;;;;;8.30;5.90;;;24.60;99.90;;;;;;5053740;28;20229;-85
2021/07/27 08:36:07;;;;;;;4.87;4.47;;;24.60;99.90;;;;;;5046405;28;20451;-84
2021/07/27 08:38:35;;;;;;;5.03;4.63;;;24.60;99.90;;;;;;5047598;28;20478;-84
2021/07/27 08:41:02;;;;;;;4.70;4.30;;;24.60;99.90;;;;;;5047740;28;20446;-84
2021/07/27 08:43:29;;;;;;;6.23;4.67;;;24.80;99.90;;;;;;5048036;28;20877;-84
2021/07/27 08:45:55;;;;;;;4.70;4.30;;;24.30;99.90;;;;;;5046198;28;20454;-84
2021/07/27 08:48:23;;;;;;;4.60;4.20;;;25.00;99.90;;;;;;5046734;28;20474;-85
2021/07/27 08:50:51;;;;;;;4.90;3.73;;;24.90;99.90;;;;;;5047284;28;20503;-84
2021/07/27 08:53:18;;;;;;;7.33;4.17;;;25.60;99.90;;;;;;5047029;28;20451;-85
2021/07/27 08:55:45;;;;;;;6.10;3.87;;;24.90;99.90;;;;;;5045433;28;20436;-85
2021/07/27 08:58:12;;;;;;;3.90;3.63;;;24.60;99.90;;;;;;5047408;28;20510;-85
2021/07/27 09:00:38;;;;;;;4.90;4.10;;;24.50;99.90;;;;;;5048340;28;20479;-85
2021/07/27 09:03:09;;;;;;;3.53;3.23;;;25.00;99.90;;;;;;5046845;28;20451;-84
2021/07/27 09:05:37;;;;;;;3.00;2.80;;;25.10;99.90;;;;;;5047109;28;20517;-85
2021/07/27 09:08:05;;;;;;;3.57;3.27;;;25.10;99.90;;;;;;5049780;28;20490;-84
2021/07/27 09:10:32;;;;;;;3.53;3.23;;;22.60;99.90;;;;;;5056466;28;20477;-84
2021/07/27 09:13:00;;;;;;;3.40;3.10;;;25.20;99.90;;;;;;5057794;28;20426;-84
2021/07/27 09:15:29;;;;;;;3.77;3.47;;;26.50;99.90;;;;;;5058740;28;20462;-84
2021/07/27 09:17:57;;;;;;;3.77;3.27;;;;;;;;;;5057331;28;20491;-81
2021/07/27 09:20:31;;;;;;;4.40;4.00;;;25.30;99.90;;;;;;5053397;28;20447;-81
2021/07/27 09:23:06;;;;;;;4.77;4.10;;;25.70;99.90;;;;;;5056252;28;20411;-83
2021/07/27 09:25:34;;;;;;;6.03;5.43;;;25.20;99.90;;;;;;5055441;28;20434;-84
2021/07/27 09:28:07;;;;;;;5.93;5.30;;;25.40;99.90;;;;;;5058545;28;20455;-82
2021/07/27 09:30:35;;;;;;;4.23;3.83;;;25.40;99.90;;;;;;5058609;28;20438;-82
2021/07/27 09:33:02;;;;;;;4.13;3.77;;;25.30;99.90;;;;;;5056637;28;20435;-83
2021/07/27 09:35:29;;;;;;;5.07;4.60;;;24.90;99.90;;;;;;5051335;28;20914;-82
2021/07/27 09:38:08;;;;;;;5.87;5.27;;;25.30;99.90;;;;;;5049850;28;20523;-82
2021/07/27 09:40:35;;;;;;;6.13;4.10;;;25.30;99.90;;;;;;5047644;28;20844;-84
2021/07/27 09:43:03;;;;;;;4.23;3.83;;;;;;;;;;5049350;28;20450;-82
2021/07/27 09:45:31;;;;;;;5.20;4.57;;;;;;;;;;5049175;28;20447;-83
2021/07/27 09:47:59;;;;;;;5.00;4.60;;;25.30;99.90;;;;;;5048971;28;20455;-82
2021/07/27 09:50:26;;;;;;;4.90;4.53;;;25.40;99.90;;;;;;5049477;28;20446;-82
2021/07/27 09:52:53;;;;;;;5.10;4.20;;;25.30;99.90;;;;;;5048159;28;20470;-83
2021/07/27 09:55:23;;;;;;;7.23;4.70;;;25.70;99.90;;;;;;5048283;28;20447;-82
2021/07/27 09:57:50;;;;;;;6.33;5.73;;;25.20;99.90;;;;;;5046988;28;20510;-83
2021/07/27 10:00:18;;;;;;;5.40;4.73;;;25.40;99.90;;;;;;5046505;28;20451;-83
2021/07/27 10:02:47;;;;;;;3.93;3.50;;;25.60;99.90;;;;;;5047078;28;20447;-83
2021/07/27 10:05:20;;;;;;;5.47;4.97;;;25.60;99.90;;;;;;5051831;28;20451;-81
2021/07/27 10:07:53;;;;;;;4.13;3.73;;;25.80;99.90;;;;;;5046798;28;20474;-82
2021/07/27 10:10:20;;;;;;;6.60;4.47;;;25.70;99.90;;;;;;5049603;28;20803;-82
2021/07/27 10:12:48;;;;;;;5.33;4.77;;;26.00;99.90;;;;;;5048157;28;20454;-82
2021/07/27 10:15:18;;;;;;;6.53;5.07;;;25.90;99.90;;;;;;5046917;28;20450;-83
2021/07/27 10:17:56;;;;;;;5.80;5.10;;;26.00;99.90;;;;;;5049223;28;20517;-82
2021/07/27 10:20:24;;;;;;;4.20;3.80;;;25.90;99.90;;;;;;5046396;28;20490;-82
2021/07/27 10:22:51;;;;;;;4.73;4.33;;;25.50;99.90;;;;;;5045934;28;20435;-81
2021/07/27 10:25:20;;;;;;;5.03;4.37;;;25.40;99.90;;;;;;5046954;28;20451;-82
2021/07/27 10:27:52;;;;;;;5.63;3.57;;;25.80;99.90;;;;;;5051500;28;20527;-81
2021/07/27 10:30:31;;;;;;;9.23;4.00;;;25.60;99.90;;;;;;5055462;28;20439;-83
2021/07/27 10:33:02;;;;;;;4.70;4.17;;;25.70;99.90;;;;;;5048747;28;20491;-81
2021/07/27 10:35:30;;;;;;;4.40;4.00;;;25.70;99.90;;;;;;5047948;28;20442;-82
2021/07/27 10:38:07;;;;;;;5.65;4.60;;;26.00;99.90;;;;;;5047573;28;20493;-82
2021/07/27 10:40:34;;;;;;;6.13;4.03;;;25.80;99.90;;;;;;5047243;28;20184;-83
2021/07/27 10:43:06;;;;;;;5.23;4.10;;;26.10;99.90;;;;;;5047426;28;20451;-83
2021/07/27 10:45:33;;;;;;;8.93;5.20;;;26.30;99.90;;;;;;5048726;28;20439;-81
2021/07/27 10:48:00;;;;;;;8.00;5.67;;;26.30;99.90;;;;;;5046831;28;20498;-81
2021/07/27 10:50:29;;;;;;;4.43;4.13;;;26.40;99.90;;;;;;5046633;28;20451;-82
2021/07/27 10:53:06;;;;;;;8.07;5.10;;;26.50;99.90;;;;;;5047301;28;20458;-83
2021/07/27 10:55:33;;;;;;;4.20;3.80;;;25.90;99.90;;;;;;5048033;28;20427;-83
2021/07/27 10:58:03;;;;;;;4.10;3.70;;;26.60;99.90;;;;;;5046692;28;20702;-82
2021/07/27 11:00:32;;;;;;;4.47;4.17;;;26.50;99.90;;;;;;5050076;28;20458;-83
2021/07/27 11:02:59;;;;;;;5.20;4.30;;;26.60;99.90;;;;;;5047951;28;21011;-81
2021/07/27 11:05:25;;;;;;;3.90;3.50;;;26.70;99.90;;;;;;5049002;28;20443;-82
2021/07/27 11:07:52;;;;;;;4.20;3.90;;;26.40;99.90;;;;;;5048434;28;20470;-81
2021/07/27 11:10:20;;;;;;;7.47;4.00;;;26.70;99.90;;;;;;5054620;28;20465;-82
2021/07/27 11:12:47;;;;;;;4.63;4.23;;;26.50;99.90;;;;;;5053751;28;20431;-81
2021/07/27 11:15:19;;;;;;;4.90;4.13;;;26.60;99.90;;;;;;5054500;28;20462;-81
2021/07/27 11:17:46;;;;;;;4.23;3.93;;;26.70;99.90;;;;;;5050759;28;20501;-83
2021/07/27 11:20:14;;;;;;;5.90;5.40;;;26.60;99.90;;;;;;5045204;28;20501;-81
2021/07/27 11:22:43;;;;;;;4.50;3.73;;;26.70;99.90;;;;;;5045885;28;20446;-79
2021/07/27 11:25:10;;;;;;;4.53;3.30;;;26.80;99.90;;;;;;5046108;28;20442;-80
2021/07/27 11:27:37;;;;;;;4.17;3.77;;;26.90;99.90;;;;;;5046031;28;20462;-79
2021/07/27 11:30:07;;;;;;;3.90;3.50;;;26.80;99.90;;;;;;5046197;28;20856;-81
2021/07/27 11:32:40;;;;;;;4.00;3.70;;;26.90;99.90;;;;;;5047035;28;20534;-82
2021/07/27 11:35:08;;;;;;;4.77;3.70;;;26.90;99.90;;;;;;5050596;28;20439;-80
2021/07/27 11:37:34;;;;;;;5.77;5.17;;;27.10;99.90;;;;;;5069380;22;20490;-81
2021/07/27 11:40:01;;;;;;;5.07;3.57;;;27.00;99.90;;;;;;5041985;28;20431;-81
2021/07/27 11:42:29;;;;;;;5.50;4.50;;;26.80;99.90;;;;;;5041674;28;20447;-82
2021/07/27 11:44:56;;;;;;;6.40;4.27;;;28.20;99.90;;;;;;5041812;28;20957;-81
2021/07/27 11:47:23;;;;;;;4.23;3.83;;;26.90;99.90;;;;;;5041006;28;20465;-81
2021/07/27 11:49:58;;;;;;;5.10;4.70;;;26.90;99.90;;;;;;5045566;28;20450;-80
2021/07/27 11:52:28;;;;;;;4.10;3.30;;;26.90;99.90;;;;;;5041916;28;20447;-81
2021/07/27 11:55:02;;;;;;;5.00;4.13;;;26.80;99.90;;;;;;5044723;28;20447;-82
2021/07/27 11:57:29;;;;;;;6.40;4.30;;;26.90;99.90;;;;;;5043900;28;20478;-81
2021/07/27 12:00:06;;;;;;;4.23;3.90;;;26.70;99.90;;;;;;5040353;28;20500;-81
2021/07/27 12:02:33;;;;;;;4.20;3.90;;;26.70;99.90;;;;;;5041015;28;20431;-82
2021/07/27 12:05:02;;;;;;;4.10;3.80;;;26.70;99.90;;;;;;5041960;28;20447;-82
2021/07/27 12:07:30;;;;;;;5.90;3.93;;;26.70;99.90;;;;;;5042030;28;20447;-82
2021/07/27 12:09:56;;;;;;;4.20;3.30;;;26.70;99.90;;;;;;5043258;28;20458;-82
2021/07/27 12:12:23;;;;;;;4.60;3.70;;;26.70;99.90;;;;;;5048709;28;20443;-82
2021/07/27 12:14:49;;;;;;;4.07;3.33;;;26.70;99.90;;;;;;5046931;28;20929;-81
2021/07/27 12:17:16;;;;;;;5.40;3.80;;;26.70;99.90;;;;;;5046035;28;20443;-81
2021/07/27 12:19:43;;;;;;;4.33;3.70;;;26.80;99.90;;;;;;5040803;28;20471;-81
2021/07/27 12:22:10;;;;;;;6.07;3.33;;;26.80;99.90;;;;;;5040152;28;20798;-80
2021/07/27 12:24:37;;;;;;;7.83;5.37;;;26.90;99.90;;;;;;5040318;28;20993;-81
2021/07/27 12:27:04;;;;;;;6.53;4.00;;;26.80;99.90;;;;;;5041095;28;20443;-81
2021/07/27 12:29:31;;;;;;;4.03;3.73;;;26.70;99.90;;;;;;5041862;28;20879;-82
2021/07/27 12:31:57;;;;;;;4.93;4.53;;;26.50;99.90;;;;;;5041998;28;20447;-82
2021/07/27 12:34:24;;;;;;;4.67;4.20;;;26.30;99.90;;;;;;5039518;28;20505;-79
2021/07/27 12:36:50;;;;;;;4.33;3.83;;;26.40;99.90;;;;;;5039550;28;20505;-81
2021/07/27 12:39:19;;;;;;;8.37;4.10;;;26.40;99.90;;;;;;5039676;28;20515;-82
2021/07/27 12:41:46;;;;;;;6.40;3.30;;;26.50;99.90;;;;;;5040261;28;20446;-82
2021/07/27 12:44:13;;;;;;;4.00;3.70;;;26.40;99.90;;;;;;5049676;28;20439;-80
2021/07/27 12:46:42;;;;;;;3.73;3.20;;;26.50;99.90;;;;;;5053093;28;20482;-80
2021/07/27 12:49:09;;;;;;;3.87;3.00;;;26.40;99.90;;;;;;5055651;28;20447;-82
2021/07/27 12:51:36;;;;;;;3.17;2.93;;;26.30;99.90;;;;;;5055040;28;20454;-79
2021/07/27 12:54:03;;;;;;;4.00;3.57;;;26.40;99.90;;;;;;5055331;28;20454;-81
2021/07/27 12:56:31;;;;;;;5.07;4.67;;;26.60;99.90;;;;;;5055056;28;20431;-80
2021/07/27 12:58:59;;;;;;;5.93;4.00;;;26.40;99.90;;;;;;5055697;28;20483;-81
2021/07/27 13:01:25;;;;;;;5.10;4.70;;;26.70;99.90;;;;;;5054549;28;20449;-80
2021/07/27 13:03:52;;;;;;;10.20;6.23;;;26.80;99.90;;;;;;5055726;28;20475;-80